sensor_id;sensor_type;location;lat;lon;timestamp;pressure;altitude;pressure_sealevel;temperature;humidity
77869;BME280;67231;59.144;37.934;2023-09-19T00:00:46;100855.19;;;9.69;72.37
77869;BME280;67231;59.144;37.934;2023-09-19T00:03:13;100845.34;;;9.71;72.38
77869;BME280;67231;59.144;37.934;2023-09-19T00:05:39;100850.34;;;9.74;71.94
77869;BME280;67231;59.144;37.934;2023-09-19T00:08:06;100853.63;;;9.78;72.01
77869;BME280;67231;59.144;37.934;2023-09-19T00:10:33;100853.50;;;9.79;71.68
77869;BME280;67231;59.144;37.934;2023-09-19T00:13:03;100854.91;;;9.83;71.25
77869;BME280;67231;59.144;37.934;2023-09-19T00:15:45;100846.25;;;9.81;71.20
77869;BME280;67231;59.144;37.934;2023-09-19T00:18:14;100846.00;;;9.84;70.40
77869;BME280;67231;59.144;37.934;2023-09-19T00:20:44;100835.41;;;9.84;70.07
77869;BME280;67231;59.144;37.934;2023-09-19T00:23:15;100841.28;;;9.88;70.16
77869;BME280;67231;59.144;37.934;2023-09-19T00:25:41;100835.97;;;9.88;70.24
77869;BME280;67231;59.144;37.934;2023-09-19T00:28:08;100834.16;;;9.89;70.04
77869;BME280;67231;59.144;37.934;2023-09-19T00:30:35;100831.50;;;9.89;69.71
77869;BME280;67231;59.144;37.934;2023-09-19T00:33:03;100826.19;;;9.89;69.64
77869;BME280;67231;59.144;37.934;2023-09-19T00:35:32;100829.59;;;9.91;69.28
77869;BME280;67231;59.144;37.934;2023-09-19T00:37:59;100825.94;;;9.92;69.11
77869;BME280;67231;59.144;37.934;2023-09-19T00:40:25;100823.31;;;9.92;68.92
77869;BME280;67231;59.144;37.934;2023-09-19T00:42:57;100825.94;;;9.92;69.05
77869;BME280;67231;59.144;37.934;2023-09-19T00:45:26;100825.13;;;9.91;68.67
77869;BME280;67231;59.144;37.934;2023-09-19T00:47:52;100825.94;;;9.92;69.10
77869;BME280;67231;59.144;37.934;2023-09-19T00:50:21;100824.03;;;9.94;68.77
77869;BME280;67231;59.144;37.934;2023-09-19T00:52:50;100833.66;;;9.95;68.73
77869;BME280;67231;59.144;37.934;2023-09-19T00:55:19;100838.94;;;9.95;68.59
77869;BME280;67231;59.144;37.934;2023-09-19T00:57:46;100835.34;;;9.96;68.90
77869;BME280;67231;59.144;37.934;2023-09-19T01:00:16;100833.53;;;9.96;68.43
77869;BME280;67231;59.144;37.934;2023-09-19T01:02:47;100836.19;;;9.96;68.51
77869;BME280;67231;59.144;37.934;2023-09-19T01:05:14;100840.66;;;9.96;68.64
77869;BME280;67231;59.144;37.934;2023-09-19T01:07:41;100830.88;;;9.96;68.64
77869;BME280;67231;59.144;37.934;2023-09-19T01:10:09;100835.47;;;9.94;69.31
77869;BME280;67231;59.144;37.934;2023-09-19T01:23:37;100820.00;;;9.78;68.86
77869;BME280;67231;59.144;37.934;2023-09-19T01:31:42;100814.13;;;9.75;69.85
77869;BME280;67231;59.144;37.934;2023-09-19T01:34:10;100813.53;;;9.71;69.52
77869;BME280;67231;59.144;37.934;2023-09-19T01:36:37;100804.84;;;9.69;70.07
77869;BME280;67231;59.144;37.934;2023-09-19T01:39:10;100802.56;;;9.64;70.36
77869;BME280;67231;59.144;37.934;2023-09-19T01:41:59;100792.97;;;9.63;69.85
77869;BME280;67231;59.144;37.934;2023-09-19T01:47:18;100795.53;;;9.54;70.41
77869;BME280;67231;59.144;37.934;2023-09-19T01:49:56;100796.88;;;9.48;71.30
77869;BME280;67231;59.144;37.934;2023-09-19T01:52:36;100789.91;;;9.47;71.15
77869;BME280;67231;59.144;37.934;2023-09-19T01:55:09;100788.22;;;9.46;70.62
77869;BME280;67231;59.144;37.934;2023-09-19T01:57:44;100790.75;;;9.47;70.76
77869;BME280;67231;59.144;37.934;2023-09-19T02:00:18;100790.75;;;9.47;71.18
77869;BME280;67231;59.144;37.934;2023-09-19T02:02:47;100786.28;;;9.48;71.03
77869;BME280;67231;59.144;37.934;2023-09-19T02:05:22;100780.72;;;9.51;71.13
77869;BME280;67231;59.144;37.934;2023-09-19T02:07:52;100779.66;;;9.54;70.39
77869;BME280;67231;59.144;37.934;2023-09-19T02:10:20;100779.53;;;9.55;70.52
77869;BME280;67231;59.144;37.934;2023-09-19T02:12:46;100788.03;;;9.59;70.36
77869;BME280;67231;59.144;37.934;2023-09-19T02:15:15;100780.81;;;9.61;70.62
77869;BME280;67231;59.144;37.934;2023-09-19T02:17:43;100783.31;;;9.62;70.24
77869;BME280;67231;59.144;37.934;2023-09-19T02:20:11;100778.84;;;9.63;70.19
77869;BME280;67231;59.144;37.934;2023-09-19T02:22:42;100772.72;;;9.62;70.21
77869;BME280;67231;59.144;37.934;2023-09-19T02:25:28;100766.03;;;9.58;69.72
77869;BME280;67231;59.144;37.934;2023-09-19T02:27:55;100767.81;;;9.58;70.18
77869;BME280;67231;59.144;37.934;2023-09-19T02:30:25;100763.50;;;9.57;70.18
77869;BME280;67231;59.144;37.934;2023-09-19T02:32:52;100767.69;;;9.59;69.56
77869;BME280;67231;59.144;37.934;2023-09-19T02:35:19;100766.72;;;9.60;69.99
77869;BME280;67231;59.144;37.934;2023-09-19T02:37:48;100752.66;;;9.60;69.48
77869;BME280;67231;59.144;37.934;2023-09-19T02:40:15;100753.59;;;9.59;70.32
77869;BME280;67231;59.144;37.934;2023-09-19T02:42:47;100751.91;;;9.58;69.54
77869;BME280;67231;59.144;37.934;2023-09-19T02:45:17;100757.59;;;9.53;69.84
77869;BME280;67231;59.144;37.934;2023-09-19T02:47:47;100760.34;;;9.52;70.27
77869;BME280;67231;59.144;37.934;2023-09-19T02:50:15;100756.19;;;9.49;70.24
77869;BME280;67231;59.144;37.934;2023-09-19T02:52:44;100759.66;;;9.50;70.30
77869;BME280;67231;59.144;37.934;2023-09-19T02:55:11;100757.97;;;9.48;70.84
77869;BME280;67231;59.144;37.934;2023-09-19T02:57:38;100757.97;;;9.48;70.06
77869;BME280;67231;59.144;37.934;2023-09-19T03:00:08;100760.47;;;9.50;70.57
77869;BME280;67231;59.144;37.934;2023-09-19T03:02:37;100756.19;;;9.49;70.37
77869;BME280;67231;59.144;37.934;2023-09-19T03:05:05;100759.53;;;9.51;70.61
77869;BME280;67231;59.144;37.934;2023-09-19T03:07:32;100762.06;;;9.53;70.20
77869;BME280;67231;59.144;37.934;2023-09-19T03:09:59;100763.50;;;9.57;70.17
77869;BME280;67231;59.144;37.934;2023-09-19T03:12:26;100768.53;;;9.60;70.88
77869;BME280;67231;59.144;37.934;2023-09-19T03:14:53;100751.66;;;9.61;70.11
77869;BME280;67231;59.144;37.934;2023-09-19T03:17:20;100763.94;;;9.62;70.41
77869;BME280;67231;59.144;37.934;2023-09-19T03:19:47;100764.66;;;9.64;70.58
77869;BME280;67231;59.144;37.934;2023-09-19T03:22:14;100763.44;;;9.68;70.26
77869;BME280;67231;59.144;37.934;2023-09-19T03:24:41;100762.31;;;9.71;70.19
77869;BME280;67231;59.144;37.934;2023-09-19T03:27:10;100764.16;;;9.70;70.43
77869;BME280;67231;59.144;37.934;2023-09-19T03:29:37;100770.84;;;9.74;70.99
77869;BME280;67231;59.144;37.934;2023-09-19T03:32:05;100756.38;;;9.78;69.92
77869;BME280;67231;59.144;37.934;2023-09-19T03:34:32;100765.91;;;9.81;70.62
77869;BME280;67231;59.144;37.934;2023-09-19T03:36:59;100750.44;;;9.86;70.44
77869;BME280;67231;59.144;37.934;2023-09-19T03:39:26;100753.66;;;9.90;70.94
77869;BME280;67231;59.144;37.934;2023-09-19T03:41:53;100755.09;;;9.94;70.12
77869;BME280;67231;59.144;37.934;2023-09-19T03:44:19;100752.19;;;9.97;70.96
77869;BME280;67231;59.144;37.934;2023-09-19T03:46:46;100750.94;;;10.01;70.35
77869;BME280;67231;59.144;37.934;2023-09-19T03:49:13;100746.22;;;10.05;70.60
77869;BME280;67231;59.144;37.934;2023-09-19T03:51:39;100753.53;;;10.12;70.61
77869;BME280;67231;59.144;37.934;2023-09-19T03:54:08;100744.09;;;10.19;70.26
77869;BME280;67231;59.144;37.934;2023-09-19T03:56:35;100748.88;;;10.26;70.17
77869;BME280;67231;59.144;37.934;2023-09-19T03:59:01;100743.63;;;10.35;70.93
77869;BME280;67231;59.144;37.934;2023-09-19T04:01:29;100739.06;;;10.47;70.22
77869;BME280;67231;59.144;37.934;2023-09-19T04:03:58;100732.84;;;10.58;69.86
77869;BME280;67231;59.144;37.934;2023-09-19T04:06:24;100729.22;;;10.69;70.20
77869;BME280;67231;59.144;37.934;2023-09-19T04:08:53;100740.44;;;10.82;69.37
77869;BME280;67231;59.144;37.934;2023-09-19T04:11:20;100734.75;;;10.97;69.42
77869;BME280;67231;59.144;37.934;2023-09-19T04:13:47;100728.19;;;11.10;69.49
77869;BME280;67231;59.144;37.934;2023-09-19T04:16:14;100734.22;;;11.22;69.28
77869;BME280;67231;59.144;37.934;2023-09-19T04:18:40;100734.50;;;11.29;68.97
77869;BME280;67231;59.144;37.934;2023-09-19T04:21:08;100739.81;;;11.39;69.05
77869;BME280;67231;59.144;37.934;2023-09-19T04:23:35;100724.84;;;11.47;68.75
77869;BME280;67231;59.144;37.934;2023-09-19T04:26:01;100729.59;;;11.54;69.00
77869;BME280;67231;59.144;37.934;2023-09-19T04:28:31;100729.03;;;11.50;69.37
77869;BME280;67231;59.144;37.934;2023-09-19T04:30:58;100741.91;;;11.45;69.44
77869;BME280;67231;59.144;37.934;2023-09-19T04:33:27;100735.75;;;11.35;70.07
77869;BME280;67231;59.144;37.934;2023-09-19T04:35:53;100737.56;;;11.24;69.91
77869;BME280;67231;59.144;37.934;2023-09-19T04:38:20;100740.22;;;11.24;70.70
77869;BME280;67231;59.144;37.934;2023-09-19T04:40:46;100734.34;;;11.21;71.06
77869;BME280;67231;59.144;37.934;2023-09-19T04:43:13;100735.75;;;11.25;70.42
77869;BME280;67231;59.144;37.934;2023-09-19T04:45:41;100738.97;;;11.28;70.94
77869;BME280;67231;59.144;37.934;2023-09-19T04:48:07;100732.13;;;11.36;70.42
77869;BME280;67231;59.144;37.934;2023-09-19T04:50:36;100728.34;;;11.48;70.71
77869;BME280;67231;59.144;37.934;2023-09-19T04:53:03;100734.06;;;11.63;70.70
77869;BME280;67231;59.144;37.934;2023-09-19T04:55:30;100737.41;;;11.75;70.60
77869;BME280;67231;59.144;37.934;2023-09-19T04:57:58;100730.13;;;11.87;69.72
77869;BME280;67231;59.144;37.934;2023-09-19T05:00:25;100730.66;;;11.90;70.07
77869;BME280;67231;59.144;37.934;2023-09-19T05:02:57;100733.47;;;11.98;70.14
77869;BME280;67231;59.144;37.934;2023-09-19T05:05:23;100738.19;;;12.14;69.63
77869;BME280;67231;59.144;37.934;2023-09-19T05:07:51;100729.78;;;12.19;69.76
77869;BME280;67231;59.144;37.934;2023-09-19T05:10:20;100729.34;;;12.24;69.35
77869;BME280;67231;59.144;37.934;2023-09-19T05:12:46;100723.59;;;12.28;69.22
77869;BME280;67231;59.144;37.934;2023-09-19T05:15:14;100738.34;;;12.50;68.66
77869;BME280;67231;59.144;37.934;2023-09-19T05:17:48;100724.97;;;12.88;67.40
77869;BME280;67231;59.144;37.934;2023-09-19T05:20:16;100719.81;;;13.76;65.04
77869;BME280;67231;59.144;37.934;2023-09-19T05:22:43;100709.41;;;15.69;61.61
77869;BME280;67231;59.144;37.934;2023-09-19T05:25:10;100716.22;;;16.60;58.80
77869;BME280;67231;59.144;37.934;2023-09-19T05:27:37;100708.50;;;16.65;58.48
77869;BME280;67231;59.144;37.934;2023-09-19T05:30:03;100703.38;;;16.87;57.38
77869;BME280;67231;59.144;37.934;2023-09-19T05:32:31;100706.88;;;16.16;58.66
77869;BME280;67231;59.144;37.934;2023-09-19T05:34:58;100708.63;;;16.32;58.31
77869;BME280;67231;59.144;37.934;2023-09-19T05:37:24;100702.34;;;17.80;55.20
77869;BME280;67231;59.144;37.934;2023-09-19T05:39:52;100705.72;;;18.12;54.45
77869;BME280;67231;59.144;37.934;2023-09-19T05:42:21;100703.28;;;18.47;53.55
77869;BME280;67231;59.144;37.934;2023-09-19T05:44:47;100715.75;;;18.70;52.59
77869;BME280;67231;59.144;37.934;2023-09-19T05:47:14;100716.03;;;18.75;51.42
77869;BME280;67231;59.144;37.934;2023-09-19T05:49:40;100713.84;;;18.64;51.23
77869;BME280;67231;59.144;37.934;2023-09-19T05:52:07;100705.06;;;18.40;50.74
77869;BME280;67231;59.144;37.934;2023-09-19T05:54:34;100703.84;;;18.58;50.42
77869;BME280;67231;59.144;37.934;2023-09-19T05:57:01;100717.22;;;18.87;49.75
77869;BME280;67231;59.144;37.934;2023-09-19T05:59:28;100701.25;;;19.72;47.27
77869;BME280;67231;59.144;37.934;2023-09-19T06:01:56;100694.00;;;19.94;47.16
77869;BME280;67231;59.144;37.934;2023-09-19T06:04:22;100691.50;;;20.28;46.48
77869;BME280;67231;59.144;37.934;2023-09-19T06:06:49;100694.25;;;20.41;46.55
77869;BME280;67231;59.144;37.934;2023-09-19T06:09:16;100700.63;;;20.33;46.06
77869;BME280;67231;59.144;37.934;2023-09-19T06:11:42;100688.91;;;21.23;44.91
77869;BME280;67231;59.144;37.934;2023-09-19T06:14:09;100690.00;;;21.49;44.40
77869;BME280;67231;59.144;37.934;2023-09-19T06:16:37;100684.56;;;21.62;44.25
77869;BME280;67231;59.144;37.934;2023-09-19T06:19:07;100688.28;;;21.88;43.38
77869;BME280;67231;59.144;37.934;2023-09-19T06:21:36;100693.63;;;22.14;43.10
77869;BME280;67231;59.144;37.934;2023-09-19T06:24:03;100687.03;;;22.10;42.91
77869;BME280;67231;59.144;37.934;2023-09-19T06:26:30;100696.72;;;22.38;42.18
77869;BME280;67231;59.144;37.934;2023-09-19T06:31:23;100680.75;;;22.16;42.53
77869;BME280;67231;59.144;37.934;2023-09-19T06:33:52;100680.28;;;22.26;42.25
77869;BME280;67231;59.144;37.934;2023-09-19T06:36:19;100677.94;;;21.71;42.49
77869;BME280;67231;59.144;37.934;2023-09-19T06:38:46;100664.19;;;21.19;43.32
77869;BME280;67231;59.144;37.934;2023-09-19T06:41:13;100666.56;;;20.67;43.99
77869;BME280;67231;59.144;37.934;2023-09-19T06:43:41;100665.28;;;20.50;44.70
77869;BME280;67231;59.144;37.934;2023-09-19T06:46:07;100655.84;;;20.81;44.31
77869;BME280;67231;59.144;37.934;2023-09-19T06:48:34;100665.03;;;21.46;43.40
77869;BME280;67231;59.144;37.934;2023-09-19T06:51:01;100660.56;;;22.71;41.21
77869;BME280;67231;59.144;37.934;2023-09-19T06:53:33;100676.59;;;23.11;40.88
77869;BME280;67231;59.144;37.934;2023-09-19T06:56:02;100664.94;;;23.11;40.61
77869;BME280;67231;59.144;37.934;2023-09-19T06:58:29;100668.19;;;23.19;40.52
77869;BME280;67231;59.144;37.934;2023-09-19T07:00:55;100671.06;;;23.75;40.05
77869;BME280;67231;59.144;37.934;2023-09-19T07:03:23;100656.03;;;24.53;38.81
77869;BME280;67231;59.144;37.934;2023-09-19T07:05:52;100657.13;;;24.94;38.62
77869;BME280;67231;59.144;37.934;2023-09-19T07:08:19;100652.63;;;25.54;38.57
77869;BME280;67231;59.144;37.934;2023-09-19T07:10:49;100657.34;;;25.94;37.58
77869;BME280;67231;59.144;37.934;2023-09-19T07:13:19;100660.31;;;25.33;37.83
77869;BME280;67231;59.144;37.934;2023-09-19T07:15:45;100650.69;;;24.46;39.04
77869;BME280;67231;59.144;37.934;2023-09-19T07:18:16;100655.13;;;23.85;39.57
77869;BME280;67231;59.144;37.934;2023-09-19T07:20:46;100654.06;;;23.68;39.42
77869;BME280;67231;59.144;37.934;2023-09-19T07:25:44;100646.09;;;24.47;38.39
77869;BME280;67231;59.144;37.934;2023-09-19T07:28:13;100640.06;;;25.17;38.41
77869;BME280;67231;59.144;37.934;2023-09-19T07:30:39;100635.03;;;25.68;37.16
77869;BME280;67231;59.144;37.934;2023-09-19T07:33:08;100629.50;;;25.51;36.83
77869;BME280;67231;59.144;37.934;2023-09-19T07:35:38;100633.81;;;24.75;37.71
77869;BME280;67231;59.144;37.934;2023-09-19T07:38:08;100638.16;;;24.45;37.91
77869;BME280;67231;59.144;37.934;2023-09-19T07:40:37;100644.22;;;24.29;38.37
77869;BME280;67231;59.144;37.934;2023-09-19T07:43:03;100640.59;;;23.98;38.90
77869;BME280;67231;59.144;37.934;2023-09-19T07:45:31;100618.41;;;23.89;39.20
77869;BME280;67231;59.144;37.934;2023-09-19T07:47:59;100636.50;;;23.26;39.09
77869;BME280;67231;59.144;37.934;2023-09-19T07:50:27;100620.50;;;22.54;39.99
77869;BME280;67231;59.144;37.934;2023-09-19T07:52:55;100626.59;;;22.43;40.57
77869;BME280;67231;59.144;37.934;2023-09-19T07:55:22;100629.19;;;22.11;41.06
77869;BME280;67231;59.144;37.934;2023-09-19T07:57:52;100625.09;;;21.95;41.06
77869;BME280;67231;59.144;37.934;2023-09-19T08:00:19;100630.16;;;21.72;40.95
77869;BME280;67231;59.144;37.934;2023-09-19T08:02:46;100621.81;;;21.80;41.08
77869;BME280;67231;59.144;37.934;2023-09-19T08:05:14;100616.28;;;22.13;40.63
77869;BME280;67231;59.144;37.934;2023-09-19T08:07:45;100637.06;;;22.65;40.30
77869;BME280;67231;59.144;37.934;2023-09-19T08:10:15;100621.28;;;22.94;39.93
77869;BME280;67231;59.144;37.934;2023-09-19T08:12:47;100628.13;;;23.53;38.88
77869;BME280;67231;59.144;37.934;2023-09-19T08:15:19;100621.31;;;23.69;38.87
77869;BME280;67231;59.144;37.934;2023-09-19T08:17:46;100615.66;;;23.71;39.08
77869;BME280;67231;59.144;37.934;2023-09-19T08:20:13;100617.63;;;23.82;38.24
77869;BME280;67231;59.144;37.934;2023-09-19T08:22:47;100613.88;;;22.82;39.45
77869;BME280;67231;59.144;37.934;2023-09-19T08:25:15;100611.66;;;21.55;41.12
77869;BME280;67231;59.144;37.934;2023-09-19T08:27:46;100591.97;;;20.26;43.09
77869;BME280;67231;59.144;37.934;2023-09-19T08:30:17;100602.06;;;19.41;44.47
77869;BME280;67231;59.144;37.934;2023-09-19T08:32:44;100608.34;;;18.62;46.27
77869;BME280;67231;59.144;37.934;2023-09-19T08:35:12;100596.28;;;18.36;47.16
77869;BME280;67231;59.144;37.934;2023-09-19T08:37:38;100588.59;;;18.33;47.69
77869;BME280;67231;59.144;37.934;2023-09-19T08:40:05;100588.34;;;18.28;47.82
77869;BME280;67231;59.144;37.934;2023-09-19T08:42:55;100582.81;;;18.14;48.04
77869;BME280;67231;59.144;37.934;2023-09-19T08:45:24;100568.19;;;18.02;48.63
77869;BME280;67231;59.144;37.934;2023-09-19T08:48:17;100564.50;;;18.03;48.24
77869;BME280;67231;59.144;37.934;2023-09-19T08:50:56;100569.97;;;17.95;48.18
77869;BME280;67231;59.144;37.934;2023-09-19T08:54:08;100549.31;;;17.65;49.24
77869;BME280;67231;59.144;37.934;2023-09-19T08:56:36;100554.59;;;17.74;49.49
77869;BME280;67231;59.144;37.934;2023-09-19T08:59:06;100555.97;;;17.40;50.36
77869;BME280;67231;59.144;37.934;2023-09-19T09:01:36;100541.88;;;17.08;51.20
77869;BME280;67231;59.144;37.934;2023-09-19T09:04:10;100554.25;;;17.09;51.22
77869;BME280;67231;59.144;37.934;2023-09-19T09:06:41;100527.81;;;17.06;51.36
77869;BME280;67231;59.144;37.934;2023-09-19T09:09:09;100528.28;;;17.09;51.15
77869;BME280;67231;59.144;37.934;2023-09-19T09:11:38;100510.53;;;17.08;51.18
77869;BME280;67231;59.144;37.934;2023-09-19T09:14:06;100527.44;;;17.09;51.23
77869;BME280;67231;59.144;37.934;2023-09-19T09:16:33;100522.13;;;16.86;51.77
77869;BME280;67231;59.144;37.934;2023-09-19T09:19:01;100524.38;;;16.51;52.25
77869;BME280;67231;59.144;37.934;2023-09-19T09:21:28;100511.41;;;16.39;52.75
77869;BME280;67231;59.144;37.934;2023-09-19T09:23:55;100522.19;;;16.78;51.98
77869;BME280;67231;59.144;37.934;2023-09-19T09:29:06;100515.25;;;16.37;52.84
77869;BME280;67231;59.144;37.934;2023-09-19T09:31:33;100501.41;;;16.56;52.57
77869;BME280;67231;59.144;37.934;2023-09-19T09:33:59;100490.75;;;16.71;52.24
77869;BME280;67231;59.144;37.934;2023-09-19T09:36:37;100496.38;;;16.77;52.36
77869;BME280;67231;59.144;37.934;2023-09-19T09:39:04;100494.50;;;16.62;52.83
77869;BME280;67231;59.144;37.934;2023-09-19T09:41:51;100492.19;;;16.74;52.81
77869;BME280;67231;59.144;37.934;2023-09-19T09:44:18;100497.53;;;16.59;53.16
77869;BME280;67231;59.144;37.934;2023-09-19T09:46:47;100487.00;;;16.57;52.94
77869;BME280;67231;59.144;37.934;2023-09-19T09:49:23;100486.03;;;16.73;52.60
77869;BME280;67231;59.144;37.934;2023-09-19T09:52:04;100490.25;;;16.91;52.45
77869;BME280;67231;59.144;37.934;2023-09-19T09:54:36;100499.34;;;16.82;52.57
77869;BME280;67231;59.144;37.934;2023-09-19T09:57:08;100503.91;;;16.58;53.22
77869;BME280;67231;59.144;37.934;2023-09-19T09:59:48;100494.59;;;16.23;54.24
77869;BME280;67231;59.144;37.934;2023-09-19T10:02:21;100492.09;;;16.21;54.85
77869;BME280;67231;59.144;37.934;2023-09-19T10:04:52;100485.38;;;16.48;54.19
77869;BME280;67231;59.144;37.934;2023-09-19T10:07:29;100490.31;;;16.60;54.21
77869;BME280;67231;59.144;37.934;2023-09-19T10:10:02;100484.34;;;16.34;54.80
77869;BME280;67231;59.144;37.934;2023-09-19T10:12:54;100485.03;;;16.28;55.11
77869;BME280;67231;59.144;37.934;2023-09-19T10:15:23;100480.94;;;16.41;55.03
77869;BME280;67231;59.144;37.934;2023-09-19T10:17:53;100471.53;;;16.45;54.86
77869;BME280;67231;59.144;37.934;2023-09-19T10:20:22;100497.84;;;16.41;55.02
77869;BME280;67231;59.144;37.934;2023-09-19T10:23:09;100482.47;;;16.35;55.17
77869;BME280;67231;59.144;37.934;2023-09-19T10:25:39;100477.38;;;16.25;55.59
77869;BME280;67231;59.144;37.934;2023-09-19T10:28:11;100458.44;;;16.27;55.26
77869;BME280;67231;59.144;37.934;2023-09-19T10:30:40;100448.44;;;16.44;54.96
77869;BME280;67231;59.144;37.934;2023-09-19T10:33:12;100442.94;;;16.37;55.37
77869;BME280;67231;59.144;37.934;2023-09-19T10:35:45;100451.47;;;16.17;55.69
77869;BME280;67231;59.144;37.934;2023-09-19T10:38:14;100434.88;;;15.99;56.33
77869;BME280;67231;59.144;37.934;2023-09-19T10:40:41;100445.63;;;15.91;56.21
77869;BME280;67231;59.144;37.934;2023-09-19T10:43:16;100436.50;;;15.77;56.47
77869;BME280;67231;59.144;37.934;2023-09-19T10:45:46;100450.91;;;15.68;57.06
77869;BME280;67231;59.144;37.934;2023-09-19T10:48:16;100418.84;;;15.59;56.96
77869;BME280;67231;59.144;37.934;2023-09-19T10:50:52;100448.69;;;15.40;57.31
77869;BME280;67231;59.144;37.934;2023-09-19T10:53:27;100439.19;;;15.29;57.91
77869;BME280;67231;59.144;37.934;2023-09-19T10:55:59;100430.19;;;15.30;58.07
77869;BME280;67231;59.144;37.934;2023-09-19T10:58:31;100434.34;;;15.33;57.73
77869;BME280;67231;59.144;37.934;2023-09-19T11:01:03;100441.56;;;15.24;58.21
77869;BME280;67231;59.144;37.934;2023-09-19T11:03:39;100437.03;;;15.24;58.22
77869;BME280;67231;59.144;37.934;2023-09-19T11:06:16;100441.41;;;15.17;58.66
77869;BME280;67231;59.144;37.934;2023-09-19T11:08:53;100437.78;;;15.02;59.04
77869;BME280;67231;59.144;37.934;2023-09-19T11:30:33;100392.81;;;15.05;59.30
77869;BME280;67231;59.144;37.934;2023-09-19T11:33:22;100392.66;;;15.07;59.63
77869;BME280;67231;59.144;37.934;2023-09-19T11:36:01;100385.91;;;15.27;59.21
77869;BME280;67231;59.144;37.934;2023-09-19T11:46:30;100368.88;;;15.28;58.46
77869;BME280;67231;59.144;37.934;2023-09-19T11:49:08;100375.19;;;14.96;59.10
77869;BME280;67231;59.144;37.934;2023-09-19T11:51:43;100377.84;;;14.88;59.52
77869;BME280;67231;59.144;37.934;2023-09-19T11:54:11;100354.56;;;15.13;59.34
77869;BME280;67231;59.144;37.934;2023-09-19T11:56:45;100366.97;;;15.37;58.80
77869;BME280;67231;59.144;37.934;2023-09-19T11:59:20;100377.19;;;15.65;58.41
77869;BME280;67231;59.144;37.934;2023-09-19T12:01:51;100346.81;;;15.81;57.84
77869;BME280;67231;59.144;37.934;2023-09-19T12:04:35;100352.16;;;15.89;57.95
77869;BME280;67231;59.144;37.934;2023-09-19T12:07:08;100350.75;;;15.70;58.41
77869;BME280;67231;59.144;37.934;2023-09-19T12:09:43;100357.16;;;15.61;58.32
77869;BME280;67231;59.144;37.934;2023-09-19T12:12:11;100335.88;;;15.68;58.68
77869;BME280;67231;59.144;37.934;2023-09-19T12:14:47;100348.50;;;15.82;58.26
77869;BME280;67231;59.144;37.934;2023-09-19T12:17:14;100343.84;;;15.76;58.40
77869;BME280;67231;59.144;37.934;2023-09-19T12:19:50;100328.84;;;15.66;58.64
77869;BME280;67231;59.144;37.934;2023-09-19T12:22:18;100334.31;;;15.50;58.72
77869;BME280;67231;59.144;37.934;2023-09-19T12:24:47;100324.22;;;15.29;59.22
77869;BME280;67231;59.144;37.934;2023-09-19T12:27:14;100328.69;;;15.14;59.96
77869;BME280;67231;59.144;37.934;2023-09-19T12:29:43;100306.78;;;15.10;59.53
77869;BME280;67231;59.144;37.934;2023-09-19T12:32:10;100317.25;;;15.20;59.22
77869;BME280;67231;59.144;37.934;2023-09-19T12:34:37;100306.22;;;15.23;59.55
77869;BME280;67231;59.144;37.934;2023-09-19T12:37:15;100309.41;;;15.18;59.71
77869;BME280;67231;59.144;37.934;2023-09-19T12:39:48;100280.34;;;15.23;59.33
77869;BME280;67231;59.144;37.934;2023-09-19T12:42:17;100303.19;;;15.26;59.46
77869;BME280;67231;59.144;37.934;2023-09-19T12:44:45;100283.66;;;15.25;59.54
77869;BME280;67231;59.144;37.934;2023-09-19T12:47:15;100280.63;;;15.28;59.67
77869;BME280;67231;59.144;37.934;2023-09-19T12:52:49;100268.22;;;15.36;59.58
77869;BME280;67231;59.144;37.934;2023-09-19T12:55:29;100274.06;;;15.39;59.17
77869;BME280;67231;59.144;37.934;2023-09-19T12:58:14;100260.47;;;15.41;59.58
77869;BME280;67231;59.144;37.934;2023-09-19T13:00:42;100272.09;;;15.33;59.60
77869;BME280;67231;59.144;37.934;2023-09-19T13:03:12;100265.94;;;15.24;59.87
77869;BME280;67231;59.144;37.934;2023-09-19T13:05:49;100264.66;;;15.20;59.93
77869;BME280;67231;59.144;37.934;2023-09-19T13:08:28;100275.88;;;15.16;59.88
77869;BME280;67231;59.144;37.934;2023-09-19T13:13:40;100261.00;;;15.13;59.49
77869;BME280;67231;59.144;37.934;2023-09-19T13:16:07;100259.34;;;15.12;59.62
77869;BME280;67231;59.144;37.934;2023-09-19T13:18:45;100246.50;;;15.07;59.34
77869;BME280;67231;59.144;37.934;2023-09-19T13:21:13;100254.53;;;15.07;59.78
77869;BME280;67231;59.144;37.934;2023-09-19T13:23:50;100263.72;;;15.05;59.31
77869;BME280;67231;59.144;37.934;2023-09-19T13:26:18;100248.84;;;15.02;59.83
77869;BME280;67231;59.144;37.934;2023-09-19T13:28:45;100247.88;;;15.03;59.64
77869;BME280;67231;59.144;37.934;2023-09-19T13:31:14;100232.66;;;15.04;59.85
77869;BME280;67231;59.144;37.934;2023-09-19T13:33:44;100223.81;;;15.03;59.72
77869;BME280;67231;59.144;37.934;2023-09-19T13:36:12;100229.34;;;15.02;59.40
77869;BME280;67231;59.144;37.934;2023-09-19T13:38:42;100229.34;;;15.02;60.00
77869;BME280;67231;59.144;37.934;2023-09-19T13:41:14;100220.31;;;15.03;59.83
77869;BME280;67231;59.144;37.934;2023-09-19T13:43:42;100226.13;;;15.06;59.84
77869;BME280;67231;59.144;37.934;2023-09-19T13:46:15;100224.59;;;15.12;59.47
77869;BME280;67231;59.144;37.934;2023-09-19T13:48:43;100214.38;;;15.16;59.40
77869;BME280;67231;59.144;37.934;2023-09-19T13:51:09;100214.84;;;15.19;59.14
77869;BME280;67231;59.144;37.934;2023-09-19T13:53:36;100208.88;;;15.17;59.67
77869;BME280;67231;59.144;37.934;2023-09-19T13:56:03;100212.53;;;15.16;59.68